Time;durP1;ratioP1;P1;durP2;ratioP2;P2;SDS_P1;SDS_P2;PMS_P1;PMS_P2;Temp;Humidity;BMP_temperature;BMP_pressure;BME280_temperature;BME280_humidity;BME280_pressure;Samples;Min_cycle;Max_cycle;Signal;HPM_P1;HPM_P2
2022/06/10 00:01:03;;;;;;;3.43;2.17;;;;;;;14.94;94.28;101358.63;5037104;28;20589;-80
2022/06/10 00:03:32;;;;;;;2.77;2.50;;;;;;;14.88;94.34;101364.19;5037286;28;20507;-80
2022/06/10 00:06:03;;;;;;;2.63;1.97;;;;;;;14.81;94.65;101363.00;5037714;28;20553;-80
2022/06/10 00:08:33;;;;;;;2.67;2.13;;;;;;;14.72;95.28;101354.78;5039373;28;20455;-80
2022/06/10 00:11:00;;;;;;;4.67;2.60;;;;;;;14.65;96.09;101365.28;5038462;28;20451;-80
2022/06/10 00:13:30;;;;;;;3.27;2.33;;;;;;;14.66;95.99;101361.47;5036740;28;20463;-80
2022/06/10 00:15:58;;;;;;;4.00;2.17;;;;;;;14.69;94.02;101369.00;5034902;28;20494;-80
2022/06/10 00:18:27;;;;;;;3.77;2.13;;;;;;;14.60;91.36;101357.25;5036214;28;20528;-79
2022/06/10 00:20:56;;;;;;;2.60;2.30;;;;;;;14.58;90.10;101375.84;5036960;28;20463;-79
2022/06/10 00:23:23;;;;;;;3.17;2.20;;;;;;;14.46;90.32;101373.63;5037013;28;20539;-80
2022/06/10 00:25:49;;;;;;;1.97;1.37;;;;;;;14.42;91.71;101374.53;5036524;28;20495;-79
2022/06/10 00:28:17;;;;;;;2.40;1.70;;;;;;;14.42;93.36;101377.25;5036515;28;21024;-80
2022/06/10 00:30:43;;;;;;;2.60;2.10;;;;;;;14.44;94.19;101372.31;5036708;28;20954;-79
2022/06/10 00:33:10;;;;;;;2.60;1.93;;;;;;;14.41;94.79;101386.56;5037238;28;20509;-80
2022/06/10 00:35:37;;;;;;;2.40;1.97;;;;;;;14.35;94.85;101394.06;5036962;28;20501;-80
2022/06/10 00:38:06;;;;;;;4.90;2.20;;;;;;;14.32;95.11;101391.94;5037073;28;20444;-80
2022/06/10 00:40:39;;;;;;;3.20;2.23;;;;;;;14.28;95.45;101396.38;5036340;28;20475;-80
2022/06/10 00:43:06;;;;;;;1.90;1.60;;;;;;;14.25;95.54;101400.50;5036167;28;20495;-80
2022/06/10 00:45:53;;;;;;;4.27;2.40;;;;;;;14.26;95.81;101398.63;5035896;28;21801;-80
2022/06/10 00:48:25;;;;;;;3.57;2.23;;;;;;;14.24;95.98;101403.56;5035891;28;20870;-80
2022/06/10 00:50:51;;;;;;;2.60;2.40;;;;;;;14.22;96.36;101400.34;5036424;28;20463;-80
2022/06/10 00:53:24;;;;;;;3.17;2.13;;;;;;;14.22;96.70;101412.03;5036420;28;20677;-80
2022/06/10 00:55:54;;;;;;;3.70;2.30;;;;;;;14.08;96.59;101405.81;5037196;28;20997;-80
2022/06/10 00:58:27;;;;;;;4.20;1.93;;;;;;;13.99;97.01;101407.59;5038133;28;20478;-80
2022/06/10 01:00:55;;;;;;;4.60;2.17;;;;;;;14.06;96.85;101408.00;5043665;28;20432;-80
2022/06/10 01:03:22;;;;;;;2.27;1.63;;;;;;;14.03;96.64;101416.78;5040955;28;20455;-80
2022/06/10 01:05:49;;;;;;;4.87;3.20;;;;;;;14.12;96.21;101420.41;5036725;28;20510;-80
2022/06/10 01:08:19;;;;;;;2.97;2.10;;;;;;;14.09;96.09;101423.75;5036307;28;20945;-80
2022/06/10 01:10:55;;;;;;;2.30;1.70;;;;;;;14.10;96.18;101433.53;5036188;28;20803;-80
2022/06/10 01:13:33;;;;;;;1.67;1.57;;;;;;;14.03;96.46;101430.41;5036526;28;20439;-80
2022/06/10 01:16:12;;;;;;;3.20;2.30;;;;;;;14.00;96.19;101425.59;5036321;28;20463;-80
2022/06/10 01:18:53;;;;;;;6.00;2.50;;;;;;;14.00;96.65;101434.56;5035464;28;20856;-80
2022/06/10 01:21:37;;;;;;;3.13;2.20;;;;;;;13.99;97.03;101424.78;5036034;28;20561;-80
2022/06/10 01:24:29;;;;;;;3.20;2.17;;;;;;;14.01;97.02;101433.44;5036542;28;20470;-79
2022/06/10 01:30:18;;;;;;;2.70;1.83;;;;;;;13.96;96.97;101440.91;5036285;28;20911;-80
2022/06/10 01:32:56;;;;;;;3.03;1.90;;;;;;;13.99;96.77;101437.56;5035835;28;20497;-78
2022/06/10 01:35:29;;;;;;;2.60;1.90;;;;;;;14.00;96.73;101434.56;5035308;28;20468;-78
2022/06/10 01:38:05;;;;;;;3.13;1.90;;;;;;;13.94;96.48;101432.22;5035780;28;20427;-78
2022/06/10 01:40:39;;;;;;;2.47;2.03;;;;;;;13.81;94.44;101433.81;5035210;28;20462;-78
2022/06/10 01:43:16;;;;;;;3.60;2.00;;;;;;;13.75;92.72;101440.50;5035581;28;20442;-79
2022/06/10 01:45:51;;;;;;;2.40;1.63;;;;;;;13.66;92.83;101445.81;5035664;28;20462;-79
2022/06/10 01:48:28;;;;;;;1.43;1.13;;;;;;;13.61;92.26;101445.94;5036142;28;20493;-81
2022/06/10 01:51:03;;;;;;;2.67;1.73;;;;;;;13.60;93.29;101445.13;5037139;28;20553;-81
2022/06/10 01:53:35;;;;;;;3.23;2.10;;;;;;;13.61;95.09;101446.72;5036458;28;20498;-81
2022/06/10 01:56:10;;;;;;;4.47;1.90;;;;;;;13.53;95.96;101450.13;5035828;28;20566;-78
2022/06/10 01:58:41;;;;;;;2.53;2.20;;;;;;;13.57;96.74;101451.16;5035299;28;20430;-78
2022/06/10 02:01:11;;;;;;;2.27;1.80;;;;;;;13.53;96.10;101449.34;5040553;28;20550;-79
2022/06/10 02:03:42;;;;;;;2.40;1.57;;;;;;;13.44;94.61;101462.00;5044019;28;20443;-79
2022/06/10 02:06:15;;;;;;;2.30;2.10;;;;;;;13.41;93.47;101457.16;5041508;28;20907;-79
2022/06/10 02:08:45;;;;;;;2.97;2.03;;;;;;;13.30;92.87;101462.78;5062571;22;20493;-68
2022/06/10 02:11:15;;;;;;;2.30;1.63;;;;;;;13.28;94.31;101470.44;5052154;28;20514;-67
2022/06/10 02:13:46;;;;;;;2.63;1.60;;;;;;;13.27;95.58;101473.44;5052464;28;20533;-68
2022/06/10 02:16:17;;;;;;;2.70;2.30;;;;;;;13.30;96.61;101479.09;5052460;28;20909;-67
2022/06/10 02:18:49;;;;;;;2.40;1.37;;;;;;;13.34;96.65;101480.13;5052813;28;20427;-68
2022/06/10 02:21:20;;;;;;;2.10;1.90;;;;;;;13.22;97.30;101477.06;5052679;28;20414;-68
2022/06/10 02:23:54;;;;;;;1.50;1.30;;;;;;;13.28;97.24;101475.06;5052679;28;20513;-68
2022/06/10 02:26:24;;;;;;;3.03;1.80;;;;;;;13.25;97.21;101481.09;5052652;28;20517;-68
2022/06/10 02:28:54;;;;;;;2.40;1.60;;;;;;;13.22;96.82;101474.34;5053104;28;20430;-68
2022/06/10 02:31:28;;;;;;;6.63;1.83;;;;;;;13.14;97.71;101478.50;5052266;28;20464;-67
2022/06/10 02:33:56;;;;;;;2.10;1.43;;;;;;;13.16;97.64;101485.59;5052674;28;20453;-68
2022/06/10 02:36:28;;;;;;;2.00;1.43;;;;;;;13.12;97.65;101482.63;5052598;28;20545;-68
2022/06/10 02:39:03;;;;;;;1.70;1.47;;;;;;;13.04;98.65;101483.31;5053139;28;20422;-68
2022/06/10 02:41:41;;;;;;;2.53;2.07;;;;;;;13.06;98.07;101483.84;5056184;28;20517;-68
2022/06/10 02:44:19;;;;;;;3.53;2.10;;;;;;;13.11;97.29;101497.34;5055832;28;20932;-69
2022/06/10 02:46:56;;;;;;;2.17;1.80;;;;;;;13.13;97.13;101493.22;5056179;28;20476;-69
2022/06/10 02:49:24;;;;;;;1.97;1.77;;;;;;;13.05;97.29;101504.75;5056012;28;20513;-67
2022/06/10 02:51:51;;;;;;;2.30;1.70;;;;;;;13.00;97.67;101506.75;5055808;28;20520;-67
2022/06/10 02:54:21;;;;;;;3.50;1.80;;;;;;;12.98;98.15;101511.69;5055774;28;20464;-67
2022/06/10 02:56:47;;;;;;;2.77;1.60;;;;;;;12.85;98.22;101511.31;5056006;28;20514;-68
2022/06/10 03:02:17;;;;;;;3.07;1.90;;;;;;;12.99;97.03;101522.25;5055613;28;20907;-68
2022/06/10 03:05:00;;;;;;;1.67;1.30;;;;;;;12.87;97.13;101525.41;5055571;28;20470;-68
2022/06/10 03:07:43;;;;;;;3.03;1.80;;;;;;;12.93;96.45;101533.53;5055207;28;20897;-68
2022/06/10 03:10:20;;;;;;;2.67;1.70;;;;;;;12.81;94.58;101531.22;5055532;28;20462;-67
2022/06/10 03:12:58;;;;;;;2.97;1.50;;;;;;;12.74;93.36;101531.56;5055230;28;20472;-68
2022/06/10 03:15:42;;;;;;;4.80;1.63;;;;;;;12.67;93.64;101542.00;5055516;28;20549;-68
2022/06/10 03:18:15;;;;;;;2.37;1.67;;;;;;;12.67;93.28;101544.72;5055449;28;20541;-69
2022/06/10 03:20:55;;;;;;;3.37;2.27;;;;;;;12.69;94.91;101539.78;5055312;28;20434;-68
2022/06/10 03:23:27;;;;;;;1.57;1.40;;;;;;;12.68;95.98;101549.06;5055073;28;20914;-67
2022/06/10 03:26:00;;;;;;;4.43;1.60;;;;;;;12.67;96.95;101557.50;5054991;28;20997;-67
2022/06/10 03:28:35;;;;;;;2.30;1.87;;;;;;;12.60;97.70;101557.84;5055686;28;20484;-69
2022/06/10 03:31:08;;;;;;;2.30;2.00;;;;;;;12.73;97.37;101568.03;5054906;28;20437;-70
2022/06/10 03:33:40;;;;;;;2.00;1.40;;;;;;;12.81;96.83;101561.94;5055055;28;20470;-69
2022/06/10 03:36:11;;;;;;;2.57;1.70;;;;;;;12.78;97.01;101565.22;5055039;28;20462;-70
2022/06/10 03:38:42;;;;;;;1.87;1.50;;;;;;;12.71;98.17;101581.09;5054788;28;20454;-69
2022/06/10 03:41:18;;;;;;;1.23;1.13;;;;;;;12.81;98.12;101580.16;5055037;28;20513;-69
2022/06/10 03:43:46;;;;;;;3.37;1.60;;;;;;;12.86;98.22;101583.63;5055098;28;20501;-69
2022/06/10 03:46:13;;;;;;;2.60;1.90;;;;;;;12.84;98.71;101588.56;5054492;28;20921;-68
2022/06/10 03:48:42;;;;;;;1.93;1.60;;;;;;;12.92;98.76;101586.28;5054554;28;20442;-68
2022/06/10 03:51:13;;;;;;;2.57;2.00;;;;;;;12.92;99.09;101589.78;5054450;28;20441;-69
2022/06/10 03:53:39;;;;;;;2.30;1.70;;;;;;;12.88;99.84;101605.06;5054765;28;20470;-68
2022/06/10 03:56:06;;;;;;;2.40;1.57;;;;;;;12.80;100.00;101598.41;5054283;28;20897;-70
2022/06/10 03:58:33;;;;;;;4.50;1.60;;;;;;;12.87;100.00;101607.00;5054612;28;20446;-68
2022/06/10 04:00:59;;;;;;;3.77;2.13;;;;;;;12.83;100.00;101600.50;5054596;28;20541;-68
2022/06/10 04:03:26;;;;;;;3.13;1.87;;;;;;;12.91;100.00;101600.97;5054537;28;20542;-68
2022/06/10 04:05:53;;;;;;;1.83;1.53;;;;;;;13.02;100.00;101597.03;5054071;28;20842;-68
2022/06/10 04:08:21;;;;;;;2.87;1.70;;;;;;;13.11;100.00;101595.28;5054240;28;20462;-68
2022/06/10 04:10:48;;;;;;;2.00;1.60;;;;;;;13.26;100.00;101602.44;5054347;28;20454;-67
2022/06/10 04:13:17;;;;;;;2.70;1.50;;;;;;;13.26;100.00;101600.53;5054352;28;20478;-70
2022/06/10 04:15:44;;;;;;;3.03;1.90;;;;;;;13.37;100.00;101609.38;5054192;28;20454;-69
2022/06/10 04:18:11;;;;;;;3.20;2.50;;;;;;;13.41;100.00;101610.38;5054160;28;20451;-69
2022/06/10 04:20:39;;;;;;;3.37;2.00;;;;;;;13.53;100.00;101618.91;5054178;28;20444;-68
2022/06/10 04:23:07;;;;;;;3.60;1.97;;;;;;;13.61;100.00;101620.16;5054065;28;20434;-68
2022/06/10 04:25:37;;;;;;;3.63;2.43;;;;;;;13.65;99.52;101614.94;5054005;28;20476;-68
2022/06/10 04:28:05;;;;;;;2.80;1.90;;;;;;;13.70;98.96;101612.13;5053725;28;20446;-69
2022/06/10 04:30:35;;;;;;;6.87;2.67;;;;;;;13.78;98.32;101616.91;5053954;28;20445;-68
2022/06/10 04:33:03;;;;;;;3.60;2.10;;;;;;;13.89;97.99;101615.63;5053891;28;20854;-70
2022/06/10 04:35:31;;;;;;;9.53;1.70;;;;;;;14.01;98.25;101621.41;5053827;28;20467;-68
2022/06/10 04:37:59;;;;;;;2.97;1.90;;;;;;;14.12;98.56;101619.31;5053966;28;20446;-68
2022/06/10 04:40:30;;;;;;;4.30;1.97;;;;;;;14.18;98.43;101618.13;5053473;28;20442;-67
2022/06/10 04:42:59;;;;;;;2.43;1.63;;;;;;;14.28;98.36;101620.66;5053780;28;20453;-68
2022/06/10 04:45:29;;;;;;;3.60;1.53;;;;;;;14.41;97.85;101621.78;5053784;28;20466;-67
2022/06/10 04:47:56;;;;;;;4.40;1.70;;;;;;;14.51;97.69;101634.44;5053904;28;20493;-68
2022/06/10 04:50:25;;;;;;;3.27;1.80;;;;;;;14.61;97.09;101637.00;5053846;28;20537;-67
2022/06/10 04:52:52;;;;;;;3.60;2.00;;;;;;;14.67;96.34;101641.22;5053254;28;20482;-64
2022/06/10 04:55:20;;;;;;;3.97;1.80;;;;;;;14.72;95.80;101638.41;5053245;28;20864;-65
2022/06/10 04:57:47;;;;;;;2.20;1.80;;;;;;;14.79;94.88;101643.47;5053575;28;20437;-67
2022/06/10 05:00:27;;;;;;;3.73;2.67;;;;;;;14.87;94.55;101640.84;5053589;28;20532;-68
2022/06/10 05:02:54;;;;;;;2.37;1.43;;;;;;;14.94;93.85;101655.97;5052862;28;20429;-68
2022/06/10 05:05:21;;;;;;;8.10;2.00;;;;;;;15.02;92.93;101650.63;5052941;28;21071;-67
2022/06/10 05:07:47;;;;;;;2.60;1.90;;;;;;;15.05;93.25;101657.38;5053090;28;20549;-68
2022/06/10 05:10:16;;;;;;;3.17;2.23;;;;;;;15.03;93.43;101663.16;5053405;28;20422;-68
2022/06/10 05:12:44;;;;;;;6.67;2.43;;;;;;;15.09;93.22;101664.66;5053270;28;20581;-68
2022/06/10 05:15:12;;;;;;;5.80;2.57;;;;;;;15.10;92.82;101662.75;5053316;28;20516;-68
2022/06/10 05:17:40;;;;;;;2.50;1.40;;;;;;;15.21;92.50;101671.53;5053184;28;20529;-68
2022/06/10 05:20:09;;;;;;;3.07;1.73;;;;;;;15.29;92.76;101668.06;5053363;28;20521;-67
2022/06/10 05:22:35;;;;;;;4.10;2.30;;;;;;;15.36;91.84;101666.56;5052859;28;21024;-68
2022/06/10 05:25:02;;;;;;;4.27;1.70;;;;;;;15.38;91.92;101672.50;5052761;28;20971;-65
2022/06/10 05:27:29;;;;;;;4.10;2.07;;;;;;;15.47;91.51;101669.84;5053107;28;20449;-65
2022/06/10 05:29:56;;;;;;;3.80;1.77;;;;;;;15.48;91.70;101673.38;5053104;28;20496;-65
2022/06/10 05:32:22;;;;;;;2.70;1.90;;;;;;;15.56;90.94;101680.84;5052642;28;20884;-66
2022/06/10 05:34:51;;;;;;;1.70;1.23;;;;;;;15.67;90.28;101681.44;5052863;28;20533;-65
2022/06/10 05:37:21;;;;;;;2.73;1.60;;;;;;;15.72;90.06;101689.56;5052702;28;20932;-65
2022/06/10 05:39:48;;;;;;;2.30;1.60;;;;;;;15.73;90.49;101685.69;5052730;28;20485;-65
2022/06/10 05:42:16;;;;;;;1.70;1.40;;;;;;;15.81;89.42;101688.50;5052866;28;20529;-65
2022/06/10 05:44:45;;;;;;;4.80;2.10;;;;;;;15.88;88.16;101688.06;5052798;28;20996;-65
2022/06/10 05:47:15;;;;;;;3.17;1.53;;;;;;;15.91;88.34;101689.38;5052924;28;20482;-66
2022/06/10 05:49:45;;;;;;;2.43;1.80;;;;;;;15.91;89.24;101694.84;5052802;28;20446;-65
2022/06/10 05:52:14;;;;;;;2.17;1.40;;;;;;;16.02;89.01;101693.47;5052434;28;21015;-65
2022/06/10 05:54:44;;;;;;;4.70;1.47;;;;;;;16.10;87.54;101690.00;5052630;28;20486;-65
2022/06/10 05:57:11;;;;;;;1.30;1.20;;;;;;;16.26;85.85;101691.22;5052408;28;20944;-65
2022/06/10 05:59:37;;;;;;;1.83;1.23;;;;;;;16.32;84.91;101703.66;5052384;28;20439;-64
2022/06/10 06:02:07;;;;;;;4.53;1.60;;;;;;;16.34;84.22;101697.88;5052669;28;20442;-66
2022/06/10 06:04:34;;;;;;;1.97;1.30;;;;;;;16.36;84.75;101704.63;5052746;28;20486;-64
2022/06/10 06:07:01;;;;;;;1.30;0.90;;;;;;;16.43;85.35;101697.94;5052667;28;20523;-65
2022/06/10 06:09:29;;;;;;;1.67;1.13;;;;;;;16.53;84.44;101701.19;5052349;28;20482;-65
2022/06/10 06:11:57;;;;;;;8.60;1.17;;;;;;;16.63;84.02;101697.38;5052771;28;20521;-65
2022/06/10 06:14:25;;;;;;;5.13;1.23;;;;;;;16.51;83.68;101688.94;5055422;28;20520;-65
2022/06/10 06:16:55;;;;;;;2.70;1.20;;;;;;;16.63;83.51;101695.44;5056562;28;20438;-64
2022/06/10 06:19:22;;;;;;;1.50;0.90;;;;;;;16.76;83.08;101696.50;5056585;28;20529;-65
2022/06/10 06:21:48;;;;;;;2.30;0.80;;;;;;;16.85;83.49;101700.09;5056186;28;21006;-65
2022/06/10 06:24:15;;;;;;;2.70;1.20;;;;;;;16.93;81.78;101700.44;5056339;28;20497;-65
2022/06/10 06:26:44;;;;;;;1.20;0.93;;;;;;;16.97;81.17;101704.16;5056033;28;20444;-65
2022/06/10 06:29:11;;;;;;;1.37;1.17;;;;;;;17.02;80.97;101699.34;5056223;28;20541;-65
2022/06/10 06:31:38;;;;;;;1.70;0.97;;;;;;;17.09;80.27;101705.19;5056335;28;20826;-65
2022/06/10 06:34:05;;;;;;;1.73;1.00;;;;;;;17.19;77.12;101701.34;5056044;28;20565;-66
2022/06/10 06:36:39;;;;;;;1.53;0.90;;;;;;;17.24;77.83;101705.84;5056121;28;20480;-65
2022/06/10 06:39:06;;;;;;;1.57;0.90;;;;;;;17.24;76.76;101705.84;5056067;28;20438;-66
2022/06/10 06:41:33;;;;;;;2.60;1.17;;;;;;;17.23;76.11;101705.06;5055944;28;20540;-65
2022/06/10 06:44:04;;;;;;;2.53;1.07;;;;;;;17.27;76.44;101714.25;5055802;28;20438;-65
2022/06/10 06:46:33;;;;;;;12.87;1.00;;;;;;;17.33;77.45;101712.97;5055684;28;21041;-65
2022/06/10 06:48:59;;;;;;;1.00;0.90;;;;;;;17.38;75.85;101710.06;5055947;28;20529;-65
2022/06/10 06:51:27;;;;;;;3.37;1.17;;;;;;;17.52;75.73;101714.59;5055945;28;20829;-65
2022/06/10 06:53:53;;;;;;;3.20;2.10;;;;;;;17.58;77.04;101714.13;5055647;28;20478;-65
2022/06/10 06:56:20;;;;;;;1.60;1.17;;;;;;;17.72;76.59;101707.72;5055730;28;20537;-65
2022/06/10 06:58:47;;;;;;;1.13;0.80;;;;;;;17.82;77.72;101723.84;5055679;28;20517;-65
2022/06/10 07:01:15;;;;;;;1.30;1.00;;;;;;;17.90;75.07;101725.78;5055375;28;20494;-65
2022/06/10 07:03:41;;;;;;;1.87;1.37;;;;;;;17.93;74.45;101727.06;5055531;28;20457;-65
2022/06/10 07:06:08;;;;;;;4.80;1.30;;;;;;;18.03;74.48;101718.53;5055470;28;20557;-66
2022/06/10 07:08:34;;;;;;;7.23;1.43;;;;;;;18.04;70.67;101726.44;5055275;28;20527;-65
2022/06/10 07:11:02;;;;;;;2.90;1.10;;;;;;;18.13;72.10;101721.75;5055440;28;20438;-65
2022/06/10 07:13:29;;;;;;;1.80;1.20;;;;;;;18.21;71.27;101717.38;5055355;28;20477;-65
2022/06/10 07:15:57;;;;;;;1.63;1.20;;;;;;;18.23;72.69;101723.34;5055351;28;20577;-65
2022/06/10 07:18:26;;;;;;;1.93;1.30;;;;;;;18.22;74.47;101721.72;5055305;28;20434;-65
2022/06/10 07:20:52;;;;;;;2.13;1.40;;;;;;;18.30;72.20;101720.13;5055227;28;20537;-65
2022/06/10 07:23:19;;;;;;;1.73;1.20;;;;;;;18.39;69.83;101723.66;5055390;28;20438;-66
2022/06/10 07:25:46;;;;;;;2.30;1.10;;;;;;;18.41;70.69;101729.59;5054281;28;20823;-65
2022/06/10 07:28:14;;;;;;;1.93;1.00;;;;;;;18.48;70.79;101729.91;5055206;28;20451;-65
2022/06/10 07:30:42;;;;;;;5.40;1.33;;;;;;;18.51;71.57;101732.03;5054879;28;20438;-65
2022/06/10 07:33:09;;;;;;;6.03;1.20;;;;;;;18.42;69.65;101731.22;5055025;28;20440;-65
2022/06/10 07:35:37;;;;;;;3.80;0.97;;;;;;;18.51;69.84;101728.47;5054784;28;20980;-65
2022/06/10 07:38:04;;;;;;;6.83;1.40;;;;;;;18.57;70.06;101732.63;5054822;28;20931;-66
2022/06/10 07:43:14;;;;;;;2.10;1.17;;;;;;;18.82;66.35;101731.00;5053443;28;20488;-65
2022/06/10 07:45:41;;;;;;;1.60;1.00;;;;;;;18.94;65.18;101733.03;5054575;28;20972;-65
2022/06/10 07:48:10;;;;;;;1.70;1.00;;;;;;;19.02;64.60;101738.47;5054832;28;20552;-66
2022/06/10 07:50:39;;;;;;;2.00;1.00;;;;;;;19.06;64.54;101730.38;5054768;28;20488;-65
2022/06/10 07:53:07;;;;;;;2.00;1.40;;;;;;;19.08;65.63;101733.59;5054565;28;20465;-66
2022/06/10 07:55:33;;;;;;;1.10;0.60;;;;;;;19.13;66.40;101728.75;5054171;28;20496;-65
2022/06/10 07:58:00;;;;;;;1.60;0.70;;;;;;;19.21;64.73;101734.50;5054363;28;20437;-65
2022/06/10 08:00:27;;;;;;;4.63;1.30;;;;;;;19.18;64.20;101729.69;5054571;28;20537;-65
2022/06/10 08:02:53;;;;;;;2.67;1.27;;;;;;;19.28;63.04;101741.09;5054485;28;20444;-65
2022/06/10 08:05:20;;;;;;;4.00;0.90;;;;;;;19.28;61.97;101743.84;5070799;22;20496;-71
2022/06/10 08:07:48;;;;;;;1.40;1.10;;;;;;;19.32;61.55;101736.56;5054460;28;20432;-71
2022/06/10 08:10:22;;;;;;;1.00;0.70;;;;;;;19.34;61.47;101741.72;5054677;28;20533;-71
2022/06/10 08:12:48;;;;;;;2.13;0.87;;;;;;;19.32;61.25;101738.50;5054284;28;20430;-71
2022/06/10 08:15:17;;;;;;;1.10;0.80;;;;;;;19.46;61.41;101741.00;5054126;28;20486;-70
2022/06/10 08:17:44;;;;;;;2.10;1.00;;;;;;;19.56;59.33;101735.09;5054794;28;20473;-71
2022/06/10 08:20:18;;;;;;;1.10;0.70;;;;;;;19.67;56.19;101733.63;5054417;28;20442;-71
2022/06/10 08:22:44;;;;;;;2.90;0.70;;;;;;;19.65;57.49;101733.94;5053831;28;20778;-71
2022/06/10 08:25:13;;;;;;;8.23;1.10;;;;;;;19.76;56.91;101739.06;5053735;28;20473;-71
2022/06/10 08:27:40;;;;;;;0.80;0.70;;;;;;;19.81;57.24;101742.41;5055094;28;20203;-71
2022/06/10 08:30:10;;;;;;;1.53;0.80;;;;;;;19.84;58.19;101738.97;5054399;28;20569;-71
2022/06/10 08:32:37;;;;;;;3.87;1.10;;;;;;;19.93;57.57;101740.88;5054605;28;20469;-71
2022/06/10 08:35:04;;;;;;;1.97;0.80;;;;;;;19.96;56.82;101749.22;5053817;28;20572;-71
2022/06/10 08:37:31;;;;;;;1.07;0.83;;;;;;;19.94;57.15;101739.72;5052897;28;20464;-71
2022/06/10 08:39:57;;;;;;;3.90;0.80;;;;;;;20.00;61.20;101739.16;5054094;28;20445;-71
2022/06/10 08:42:35;;;;;;;1.13;0.63;;;;;;;20.13;57.06;101726.28;5053584;28;21006;-71
2022/06/10 08:45:17;;;;;;;2.70;0.90;;;;;;;20.19;56.16;101735.13;5053985;28;20541;-71
2022/06/10 08:47:59;;;;;;;1.63;1.03;;;;;;;20.33;56.11;101739.19;5053884;28;20488;-71
2022/06/10 08:50:51;;;;;;;0.90;0.70;;;;;;;20.19;56.03;101741.44;5053362;28;20521;-71
2022/06/10 08:53:34;;;;;;;1.10;0.87;;;;;;;20.23;57.27;101736.03;5053310;28;20513;-72
2022/06/10 08:56:07;;;;;;;1.00;0.73;;;;;;;20.33;57.60;101739.19;5053523;28;20462;-71
2022/06/10 08:58:40;;;;;;;1.87;0.80;;;;;;;20.42;56.83;101739.91;5053318;28;20908;-71
2022/06/10 09:01:17;;;;;;;1.10;0.60;;;;;;;20.42;56.71;101731.66;5053470;28;20518;-72
2022/06/10 09:03:49;;;;;;;1.77;0.83;;;;;;;20.57;56.64;101726.66;5053790;28;20517;-71
2022/06/10 09:06:21;;;;;;;2.00;0.80;;;;;;;20.64;55.39;101751.69;5052997;28;20474;-72
2022/06/10 09:08:51;;;;;;;1.13;0.80;;;;;;;20.76;55.23;101743.47;5053418;28;20449;-71
2022/06/10 09:11:25;;;;;;;3.57;1.10;;;;;;;20.82;54.98;101736.59;5053366;28;20430;-71
2022/06/10 09:13:58;;;;;;;0.80;0.57;;;;;;;20.84;54.80;101742.53;5053278;28;20844;-71
2022/06/10 09:16:28;;;;;;;1.90;1.03;;;;;;;20.87;54.52;101743.81;5052913;28;20997;-71
2022/06/10 09:19:05;;;;;;;0.93;0.70;;;;;;;20.90;54.80;101740.38;5053289;28;20469;-71
2022/06/10 09:21:40;;;;;;;8.27;1.00;;;;;;;20.90;53.83;101730.16;5053174;28;20430;-71
2022/06/10 09:24:11;;;;;;;2.60;1.30;;;;;;;21.03;55.06;101728.22;5053153;28;20521;-71
2022/06/10 09:26:42;;;;;;;1.27;1.00;;;;;;;21.07;53.13;101728.31;5052792;28;20454;-71
2022/06/10 09:29:12;;;;;;;2.93;0.80;;;;;;;20.89;52.86;101734.06;5053120;28;20525;-72
2022/06/10 09:31:41;;;;;;;3.00;1.20;;;;;;;20.92;53.02;101736.13;5053086;28;20444;-72
2022/06/10 09:34:20;;;;;;;2.10;1.03;;;;;;;21.07;51.58;101731.06;5052944;28;20488;-72
2022/06/10 09:36:58;;;;;;;3.13;0.77;;;;;;;21.12;50.08;101733.63;5053108;28;20458;-71
2022/06/10 09:42:28;;;;;;;3.00;0.80;;;;;;;21.30;49.23;101740.50;5053344;28;20406;-71
2022/06/10 09:45:04;;;;;;;1.57;1.10;;;;;;;21.24;49.67;101730.84;5052867;28;20885;-71
2022/06/10 09:47:46;;;;;;;4.93;0.80;;;;;;;21.28;48.68;101736.47;5053553;28;20426;-71
2022/06/10 09:50:21;;;;;;;1.87;1.00;;;;;;;21.42;49.74;101745.22;5057193;28;20506;-72
2022/06/10 09:53:02;;;;;;;1.10;0.70;;;;;;;21.51;48.25;101748.66;5056738;28;20872;-72
2022/06/10 09:55:45;;;;;;;4.33;0.83;;;;;;;21.50;47.47;101737.97;5057536;28;20852;-72
2022/06/10 09:58:45;;;;;;;2.30;1.00;;;;;;;21.59;48.18;101747.72;5056913;28;20825;-72
2022/06/10 10:01:26;;;;;;;1.00;0.67;;;;;;;21.62;49.09;101733.25;5056900;28;20796;-71
2022/06/10 10:04:19;;;;;;;1.27;0.87;;;;;;;21.60;47.60;101743.00;5057048;28;20426;-73
2022/06/10 10:06:51;;;;;;;2.30;1.07;;;;;;;21.69;48.66;101732.63;5056772;28;20840;-72
2022/06/10 10:09:27;;;;;;;1.17;0.80;;;;;;;21.85;48.04;101743.75;5057081;28;20435;-72
2022/06/10 10:12:14;;;;;;;4.53;1.00;;;;;;;21.92;48.79;101744.78;5056587;28;20432;-72
2022/06/10 10:14:48;;;;;;;1.60;0.80;;;;;;;21.91;47.95;101743.19;5056966;28;20470;-72
2022/06/10 10:17:39;;;;;;;1.57;0.60;;;;;;;21.90;46.34;101740.75;5056648;28;20790;-72
2022/06/10 10:20:14;;;;;;;0.83;0.47;;;;;;;21.85;47.89;101721.69;5056140;28;20484;-72
2022/06/10 10:23:04;;;;;;;1.67;0.73;;;;;;;21.98;47.12;101741.75;5057027;28;20512;-71
2022/06/10 10:25:31;;;;;;;5.30;1.03;;;;;;;21.96;47.38;101733.84;5056360;28;20477;-74
2022/06/10 10:27:58;;;;;;;2.27;0.83;;;;;;;22.04;46.93;101740.34;5056388;28;21003;-73
2022/06/10 10:30:32;;;;;;;3.33;0.90;;;;;;;22.07;46.65;101734.94;5056590;28;20521;-73
2022/06/10 10:33:03;;;;;;;4.13;0.90;;;;;;;22.17;47.05;101744.69;5056580;28;20430;-74
2022/06/10 10:35:34;;;;;;;1.33;0.70;;;;;;;22.12;48.43;101731.16;5056086;28;20572;-73
2022/06/10 10:38:03;;;;;;;0.90;0.60;;;;;;;22.11;47.52;101726.75;5056450;28;20437;-74
2022/06/10 10:40:35;;;;;;;1.27;0.80;;;;;;;22.20;50.09;101727.44;5056094;28;20438;-74
2022/06/10 10:43:08;;;;;;;1.60;0.63;;;;;;;22.34;46.84;101727.03;5056057;28;20418;-73
2022/06/10 10:45:38;;;;;;;1.10;0.90;;;;;;;22.40;46.89;101734.72;5056001;28;20461;-73
2022/06/10 10:48:17;;;;;;;3.07;0.90;;;;;;;22.45;46.60;101721.81;5056098;28;20473;-74
2022/06/10 10:50:55;;;;;;;1.07;0.70;;;;;;;22.47;47.78;101730.53;5055963;28;20441;-73
2022/06/10 10:53:25;;;;;;;3.73;0.90;;;;;;;22.60;45.08;101715.47;5055851;28;20509;-73
2022/06/10 10:55:56;;;;;;;8.43;1.10;;;;;;;22.73;46.27;101722.53;5056082;28;20490;-74
2022/06/10 10:58:28;;;;;;;2.40;0.93;;;;;;;22.70;45.32;101728.75;5057220;28;20506;-73
2022/06/10 11:00:58;;;;;;;0.90;0.60;;;;;;;22.67;46.06;101729.50;5054844;28;20529;-73
2022/06/10 11:03:29;;;;;;;1.53;0.77;;;;;;;22.89;45.51;101728.06;5055644;28;20473;-74
2022/06/10 11:05:57;;;;;;;1.47;0.63;;;;;;;23.11;47.05;101726.66;5055301;28;20577;-74
2022/06/10 11:08:30;;;;;;;0.80;0.60;;;;;;;23.26;47.90;101725.81;5055760;28;20441;-74
2022/06/10 11:11:04;;;;;;;2.77;0.87;;;;;;;23.51;43.56;101728.34;5056362;28;20434;-74
2022/06/10 11:13:46;;;;;;;2.40;1.00;;;;;;;23.47;44.76;101722.75;5056225;28;20515;-74
2022/06/10 11:16:36;;;;;;;2.60;0.60;;;;;;;23.65;43.43;101717.63;5055774;28;20561;-74
2022/06/10 11:19:15;;;;;;;1.07;0.77;;;;;;;23.78;43.45;101721.84;5055388;28;20446;-73
2022/06/10 11:21:51;;;;;;;7.63;1.57;;;;;;;23.96;45.16;101721.44;5055604;28;20513;-74
2022/06/10 11:24:24;;;;;;;1.40;0.80;;;;;;;24.06;41.20;101715.28;5055669;28;20545;-74
2022/06/10 11:26:53;;;;;;;1.30;0.70;;;;;;;24.38;41.06;101713.94;5055485;28;20549;-74
2022/06/10 11:29:21;;;;;;;0.70;0.70;;;;;;;24.71;40.28;101729.19;5053392;28;20443;-75
2022/06/10 11:31:50;;;;;;;1.53;1.17;;;;;;;25.07;39.16;101727.00;5054386;28;20530;-72
2022/06/10 11:34:22;;;;;;;1.00;0.60;;;;;;;25.38;41.15;101712.81;5053975;28;20445;-73
2022/06/10 11:36:50;;;;;;;3.30;0.53;;;;;;;25.60;38.17;101713.91;5051204;28;20482;-74
2022/06/10 11:39:19;;;;;;;1.10;0.63;;;;;;;25.78;38.00;101710.59;5054994;28;20450;-75
2022/06/10 11:42:01;;;;;;;1.00;0.67;;;;;;;25.99;37.93;101710.88;5054727;28;20485;-75
2022/06/10 11:44:31;;;;;;;3.67;1.00;;;;;;;26.20;37.60;101709.47;5042697;28;20470;-76
2022/06/10 11:47:04;;;;;;;2.50;0.80;;;;;;;26.48;38.93;101706.25;5054374;28;20947;-76
2022/06/10 11:49:37;;;;;;;1.10;0.70;;;;;;;26.75;36.95;101701.31;5054329;28;20530;-76
2022/06/10 11:52:12;;;;;;;2.23;0.97;;;;;;;26.83;37.57;101700.19;5054196;28;21004;-76
2022/06/10 11:54:45;;;;;;;4.33;0.73;;;;;;;27.12;37.77;101695.66;5054049;28;20466;-77